Time;durP1;ratioP1;P1;durP2;ratioP2;P2;SDS_P1;SDS_P2;PMS_P1;PMS_P2;Temp;Humidity;BMP_temperature;BMP_pressure;BME280_temperature;BME280_humidity;BME280_pressure;Samples;Min_cycle;Max_cycle;Signal;HPM_P1;HPM_P2
2021/06/25 00:01:05;;;;;;;15.02;8.10;;;;;;;;;;5070255;28;20135;-59
2021/06/25 00:03:31;;;;;;;14.40;7.63;;;;;;;;;;5071458;28;20059;-60
2021/06/25 00:05:58;;;;;;;14.90;7.10;;;;;;;;;;5071210;28;20079;-60
2021/06/25 00:08:24;;;;;;;16.45;6.82;;;;;;;;;;5071488;28;20098;-59
2021/06/25 00:10:50;;;;;;;17.73;8.10;;;;;;;;;;5071643;28;20052;-59
2021/06/25 00:13:17;;;;;;;12.88;7.38;;;;;;;;;;5071456;28;20565;-60
2021/06/25 00:15:43;;;;;;;12.63;7.90;;;;;;;;;;5053430;28;20041;-59
2021/06/25 00:18:10;;;;;;;13.15;7.18;;;;;;;;;;5053650;28;20041;-59
2021/06/25 00:20:36;;;;;;;15.18;7.80;;;;;;;;;;5071732;28;20043;-59
2021/06/25 00:23:03;;;;;;;30.02;8.55;;;;;;;;;;5071817;28;20044;-59
2021/06/25 00:25:29;;;;;;;19.27;7.95;;;;;;;;;;5071929;28;20048;-59
2021/06/25 00:27:55;;;;;;;14.88;7.85;;;;;;;;;;5071912;28;20072;-59
2021/06/25 00:30:22;;;;;;;16.63;8.50;;;;;;;;;;5053812;28;20076;-59
2021/06/25 00:32:48;;;;;;;12.25;7.10;;;;;;;;;;5071813;28;20102;-59
2021/06/25 00:35:15;;;;;;;14.10;7.50;;;;;;;;;;5071786;28;20056;-60
2021/06/25 00:37:42;;;;;;;11.13;7.70;;;;;;;;;;5075157;28;20048;-59
2021/06/25 00:40:09;;;;;;;13.75;8.23;;;;;;;;;;5075886;28;20445;-59
2021/06/25 00:42:36;;;;;;;12.65;7.07;;;;;;;;;;5057446;28;20067;-59
2021/06/25 00:45:09;;;;;;;15.15;7.85;;;;;;;;;;5075180;28;20063;-60
2021/06/25 00:47:35;;;;;;;14.10;7.78;;;;;;;;;;5075234;28;20129;-59
2021/06/25 00:50:02;;;;;;;15.48;7.40;;;;;;;;;;5057361;28;20094;-59
2021/06/25 00:52:28;;;;;;;12.90;7.25;;;;;;;;;;5075584;28;20490;-59
2021/06/25 00:54:54;;;;;;;15.82;7.20;;;;;;;;;;5075388;28;20037;-59
2021/06/25 00:57:21;;;;;;;14.30;7.97;;;;;;;;;;5074833;28;20075;-59
2021/06/25 00:59:47;;;;;;;13.13;7.10;;;;;;;;;;5074829;28;20048;-59
2021/06/25 01:02:13;;;;;;;14.32;8.88;;;;;;;;;;5074957;28;20086;-59
2021/06/25 01:04:40;;;;;;;16.90;8.82;;;;;;;;;;5074988;28;20076;-59
2021/06/25 01:07:06;;;;;;;20.48;8.70;;;;;;;;;;5075524;28;20054;-59
2021/06/25 01:09:35;;;;;;;13.15;8.07;;;;;;;;;;5074739;28;20381;-59
2021/06/25 01:12:05;;;;;;;24.30;10.38;;;;;;;;;;5074627;28;20518;-59
2021/06/25 01:14:32;;;;;;;17.15;8.02;;;;;;;;;;5074723;28;20048;-59
2021/06/25 01:16:59;;;;;;;16.17;7.88;;;;;;;;;;5074982;28;20049;-59
2021/06/25 01:19:25;;;;;;;15.77;7.72;;;;;;;;;;5074970;28;20534;-59
2021/06/25 01:21:52;;;;;;;14.40;7.20;;;;;;;;;;5057033;28;20044;-59
2021/06/25 01:24:18;;;;;;;12.98;7.88;;;;;;;;;;5074723;28;20044;-59
2021/06/25 01:26:44;;;;;;;16.98;7.25;;;;;;;;;;5074368;28;20082;-59
2021/06/25 01:29:11;;;;;;;14.35;8.05;;;;;;;;;;5074536;28;20047;-59
2021/06/25 01:31:37;;;;;;;14.40;7.65;;;;;;;;;;5074602;28;20178;-59
2021/06/25 01:34:05;;;;;;;16.48;8.10;;;;;;;;;;5074847;28;20094;-59
2021/06/25 01:36:32;;;;;;;12.52;6.55;;;;;;;;;;5074554;28;20041;-59
2021/06/25 01:38:59;;;;;;;14.13;7.55;;;;;;;;;;5074118;28;20090;-59
2021/06/25 01:41:26;;;;;;;11.52;7.43;;;;;;;;;;5074536;28;20072;-59
2021/06/25 01:43:53;;;;;;;14.27;7.25;;;;;;;;;;5074310;28;20509;-58
2021/06/25 01:46:20;;;;;;;12.23;7.85;;;;;;;;;;5074832;28;20040;-58
2021/06/25 01:48:46;;;;;;;12.57;7.30;;;;;;;;;;5056131;28;20047;-58
2021/06/25 01:51:12;;;;;;;16.63;7.82;;;;;;;;;;5074426;28;20110;-59
2021/06/25 01:53:38;;;;;;;17.35;8.70;;;;;;;;;;5073817;28;20041;-58
2021/06/25 01:56:05;;;;;;;17.15;9.25;;;;;;;;;;5074300;28;20068;-59
2021/06/25 01:58:31;;;;;;;16.15;8.88;;;;;;;;;;5074293;28;20044;-58
2021/06/25 02:01:00;;;;;;;16.25;9.23;;;;;;;;;;5073317;28;20423;-58
2021/06/25 02:03:27;;;;;;;18.50;8.52;;;;;;;;;;5073816;28;20044;-59
2021/06/25 02:05:53;;;;;;;19.52;8.93;;;;;;;;;;5073918;28;20067;-58
2021/06/25 02:08:19;;;;;;;15.35;8.43;;;;;;;;;;5073649;28;20127;-58
2021/06/25 02:10:46;;;;;;;15.00;7.75;;;;;;;;;;5073600;28;20056;-58
2021/06/25 02:13:12;;;;;;;16.35;8.57;;;;;;;;;;5074268;28;20070;-59
2021/06/25 02:15:38;;;;;;;18.20;9.75;;;;;;;;;;5055655;28;20041;-58
2021/06/25 02:18:05;;;;;;;14.65;8.90;;;;;;;;;;5055711;28;20076;-58
2021/06/25 02:20:31;;;;;;;15.75;8.65;;;;;;;;;;5073463;28;20048;-58
2021/06/25 02:22:57;;;;;;;15.18;8.57;;;;;;;;;;5055457;28;20106;-58
2021/06/25 02:25:24;;;;;;;14.15;7.63;;;;;;;;;;5074001;28;20091;-58
2021/06/25 02:27:50;;;;;;;21.70;9.38;;;;;;;;;;5073465;28;20064;-58
2021/06/25 02:30:17;;;;;;;20.60;8.68;;;;;;;;;;5073346;28;20574;-58
2021/06/25 02:32:45;;;;;;;17.38;9.30;;;;;;;;;;5055488;28;20064;-58
2021/06/25 02:35:12;;;;;;;16.00;9.23;;;;;;;;;;5073259;28;20075;-58
2021/06/25 02:37:38;;;;;;;16.60;9.13;;;;;;;;;;5073249;28;20079;-58
2021/06/25 02:40:05;;;;;;;16.90;9.70;;;;;;;;;;5072419;28;20076;-58
2021/06/25 02:42:32;;;;;;;19.73;9.18;;;;;;;;;;5072986;28;20079;-58
2021/06/25 02:44:58;;;;;;;17.70;9.90;;;;;;;;;;5055335;28;20040;-58
2021/06/25 02:47:24;;;;;;;15.38;8.98;;;;;;;;;;5072883;28;20515;-58
2021/06/25 02:49:50;;;;;;;16.42;9.00;;;;;;;;;;5072942;28;20036;-58
2021/06/25 02:52:17;;;;;;;17.45;9.80;;;;;;;;;;5073337;28;20105;-57
2021/06/25 02:54:44;;;;;;;14.90;8.82;;;;;;;;;;5072738;28;20041;-58
2021/06/25 02:57:10;;;;;;;17.17;9.65;;;;;;;;;;5055197;28;20040;-58
2021/06/25 02:59:36;;;;;;;18.35;9.90;;;;;;;;;;5071951;28;20135;-58
2021/06/25 03:02:03;;;;;;;19.55;10.13;;;;;;;;;;5072705;28;20036;-58
2021/06/25 03:04:29;;;;;;;20.88;9.93;;;;;;;;;;5072949;28;20045;-58
2021/06/25 03:06:55;;;;;;;21.75;9.57;;;;;;;;;;5072763;28;20040;-58
2021/06/25 03:09:22;;;;;;;21.90;9.40;;;;;;;;;;5072512;28;20059;-58
2021/06/25 03:11:48;;;;;;;19.95;10.48;;;;;;;;;;5072498;28;20049;-58
2021/06/25 03:14:14;;;;;;;18.83;9.77;;;;;;;;;;5072737;28;20044;-58
2021/06/25 03:16:40;;;;;;;18.55;10.05;;;;;;;;;;5072550;28;20048;-58
2021/06/25 03:19:07;;;;;;;18.23;10.05;;;;;;;;;;5055238;28;20053;-58
2021/06/25 03:21:33;;;;;;;16.38;9.77;;;;;;;;;;5072162;28;20043;-58
2021/06/25 03:23:59;;;;;;;18.10;9.65;;;;;;;;;;5054446;28;20067;-58
2021/06/25 03:26:26;;;;;;;18.17;9.68;;;;;;;;;;5072581;28;20049;-58
2021/06/25 03:28:52;;;;;;;17.15;10.27;;;;;;;;;;5072225;28;20059;-57
2021/06/25 03:31:19;;;;;;;19.27;9.55;;;;;;;;;;5072728;28;20052;-58
2021/06/25 03:33:45;;;;;;;15.20;9.63;;;;;;;;;;5072429;28;20041;-58
2021/06/25 03:36:11;;;;;;;17.13;10.50;;;;;;;;;;5071868;28;20072;-58
2021/06/25 03:38:38;;;;;;;20.77;10.90;;;;;;;;;;5072223;28;20041;-58
2021/06/25 03:41:04;;;;;;;17.15;10.95;;;;;;;;;;5072211;28;20037;-57
2021/06/25 03:43:30;;;;;;;21.35;11.40;;;;;;;;;;5072464;28;20040;-57
2021/06/25 03:45:57;;;;;;;21.08;11.45;;;;;;;;;;5072364;28;20076;-57
2021/06/25 03:48:23;;;;;;;23.88;11.27;;;;;;;;;;5072264;28;20056;-57
2021/06/25 03:50:49;;;;;;;17.40;11.27;;;;;;;;;;5071783;28;20055;-57
2021/06/25 03:53:16;;;;;;;23.70;10.95;;;;;;;;;;5072493;28;20056;-57
2021/06/25 03:58:28;;;;;;;23.13;13.27;;;;;;;;;;5069187;28;20048;-58
2021/06/25 04:00:55;;;;;;;27.23;13.20;;;;;;;;;;5071764;28;20052;-57
2021/06/25 04:03:21;;;;;;;26.85;13.65;;;;;;;;;;5072008;28;20385;-57
2021/06/25 04:05:47;;;;;;;32.05;14.68;;;;;;;;;;5071950;28;20098;-57
2021/06/25 04:08:13;;;;;;;26.95;14.10;;;;;;;;;;5072108;28;20047;-58
2021/06/25 04:10:40;;;;;;;32.35;14.48;;;;;;;;;;5072138;28;20380;-57
2021/06/25 04:13:06;;;;;;;29.00;14.23;;;;;;;;;;5074507;28;20558;-57
2021/06/25 04:15:32;;;;;;;25.25;13.38;;;;;;;;;;5058062;28;20487;-57
2021/06/25 04:17:59;;;;;;;27.13;14.07;;;;;;;;;;5075959;28;20044;-57
2021/06/25 04:20:25;;;;;;;32.08;15.50;;;;;;;;;;5057672;28;20072;-57
2021/06/25 04:22:51;;;;;;;30.77;14.30;;;;;;;;;;5075829;28;20094;-57
2021/06/25 04:25:18;;;;;;;27.35;14.85;;;;;;;;;;5076272;28;20044;-57
2021/06/25 04:27:44;;;;;;;25.65;13.88;;;;;;;;;;5075702;28;20565;-57
2021/06/25 04:30:12;;;;;;;25.75;15.48;;;;;;;;;;5075477;28;20048;-57
2021/06/25 04:32:39;;;;;;;30.15;15.95;;;;;;;;;;5075541;28;20048;-57
2021/06/25 04:35:06;;;;;;;52.53;20.08;;;;;;;;;;5075607;28;20044;-57
2021/06/25 04:37:32;;;;;;;29.17;17.33;;;;;;;;;;5075618;28;20048;-57
2021/06/25 04:39:58;;;;;;;28.85;16.77;;;;;;;;;;5075813;28;20053;-57
2021/06/25 04:42:25;;;;;;;38.97;19.30;;;;;;;;;;5075414;28;20098;-57
2021/06/25 04:44:51;;;;;;;32.13;18.48;;;;;;;;;;5075299;28;20044;-57
2021/06/25 04:47:18;;;;;;;34.75;19.13;;;;;;;;;;5075363;28;20036;-56
2021/06/25 04:49:44;;;;;;;39.22;19.80;;;;;;;;;;5074948;28;20483;-57
2021/06/25 04:52:10;;;;;;;48.78;22.13;;;;;;;;;;5075908;28;20048;-57
2021/06/25 04:54:37;;;;;;;45.42;21.05;;;;;;;;;;5075042;28;20048;-56
2021/06/25 04:57:04;;;;;;;44.00;21.75;;;;;;;;;;5075141;28;20068;-56
2021/06/25 04:59:30;;;;;;;40.92;22.45;;;;;;;;;;5074777;28;20139;-57
2021/06/25 05:01:56;;;;;;;48.28;23.63;;;;;;;;;;5075134;28;20036;-56
2021/06/25 05:04:23;;;;;;;47.70;24.77;;;;;;;;;;5070356;28;20048;-56
2021/06/25 05:06:49;;;;;;;50.58;26.48;;;;;;;;;;5074997;28;20123;-56
2021/06/25 05:09:15;;;;;;;47.53;24.05;;;;;;;;;;5074707;28;20458;-56
2021/06/25 05:11:42;;;;;;;57.47;25.80;;;;;;;;;;5074730;28;20053;-56
2021/06/25 05:14:09;;;;;;;56.45;27.30;;;;;;;;;;5074611;28;20048;-56
2021/06/25 05:16:36;;;;;;;46.88;24.77;;;;;;;;;;5056400;28;20395;-55
2021/06/25 05:19:02;;;;;;;54.20;26.58;;;;;;;;;;5074641;28;20080;-56
2021/06/25 05:21:29;;;;;;;51.45;26.67;;;;;;;;;;5073891;28;20576;-55
2021/06/25 05:23:55;;;;;;;52.67;27.67;;;;;;;;;;5074532;28;20052;-55
2021/06/25 05:26:21;;;;;;;58.30;30.38;;;;;;;;;;5074662;28;20079;-55
2021/06/25 05:28:48;;;;;;;60.35;28.33;;;;;;;;;;5074511;28;20487;-55
2021/06/25 05:31:14;;;;;;;54.25;28.13;;;;;;;;;;5074483;28;20411;-55
2021/06/25 05:33:41;;;;;;;54.78;30.10;;;;;;;;;;5075443;28;20048;-55
2021/06/25 05:36:09;;;;;;;55.65;29.30;;;;;;;;;;5094519;28;20101;-55
2021/06/25 05:38:35;;;;;;;55.30;29.65;;;;;;;;;;5073767;28;20388;-55
2021/06/25 05:41:01;;;;;;;52.17;27.50;;;;;;;;;;5073920;28;20053;-54
2021/06/25 05:43:28;;;;;;;58.50;30.35;;;;;;;;;;5078019;28;20384;-54
2021/06/25 05:45:54;;;;;;;55.38;29.42;;;;;;;;;;5074099;28;20044;-53
2021/06/25 05:48:20;;;;;;;59.75;30.55;;;;;;;;;;5058356;28;20044;-55
2021/06/25 05:50:46;;;;;;;56.28;29.55;;;;;;;;;;5077218;28;20511;-54
2021/06/25 05:53:14;;;;;;;65.28;32.13;;;;;;;;;;5074065;28;20046;-54
2021/06/25 05:55:43;;;;;;;65.43;32.97;;;;;;;;;;5056440;28;20071;-55
2021/06/25 05:58:10;;;;;;;65.15;32.47;;;;;;;;;;5071679;28;20495;-54
2021/06/25 06:00:36;;;;;;;61.17;31.15;;;;;;;;;;5073432;28;20040;-54
2021/06/25 06:03:02;;;;;;;62.55;32.95;;;;;;;;;;5073963;28;20052;-54
2021/06/25 06:05:29;;;;;;;66.40;33.10;;;;;;;;;;5073749;28;20045;-54
2021/06/25 06:07:55;;;;;;;67.75;33.45;;;;;;;;;;5054400;28;20163;-53
2021/06/25 06:10:21;;;;;;;67.03;35.08;;;;;;;;;;5066809;28;20088;-54
2021/06/25 06:12:48;;;;;;;67.93;35.03;;;;;;;;;;5074584;28;20044;-54
2021/06/25 06:15:18;;;;;;;68.25;36.47;;;;;;;;;;5071374;28;20032;-54
2021/06/25 06:17:48;;;;;;;66.75;36.78;;;;;;;;;;5074628;28;20119;-54
2021/06/25 06:20:20;;;;;;;71.63;37.08;;;;;;;;;;5070795;28;20048;-54
2021/06/25 06:31:16;;;;;;;66.50;36.95;;;;;;;;;;5071698;28;20044;-54
2021/06/25 06:33:49;;;;;;;62.60;32.83;;;;;;;;;;5069653;28;20052;-54
2021/06/25 06:39:13;;;;;;;69.03;34.88;;;;;;;;;;4995790;28;20084;-54
2021/06/25 06:41:40;;;;;;;69.13;35.50;;;;;;;;;;5003666;28;20734;-54
2021/06/25 06:44:07;;;;;;;59.17;32.75;;;;;;;;;;4994911;28;20081;-53
2021/06/25 06:46:35;;;;;;;60.55;32.95;;;;;;;;;;4989646;28;20125;-53
2021/06/25 06:49:02;;;;;;;55.40;31.88;;;;;;;;;;5000239;28;20054;-52
2021/06/25 06:51:28;;;;;;;54.50;31.05;;;;;;;;;;4998900;28;20050;-52
2021/06/25 06:54:00;;;;;;;56.85;30.02;;;;;;;;;;4990579;28;20053;-52
2021/06/25 06:56:26;;;;;;;53.92;30.98;;;;;;;;;;4997210;28;20054;-52
2021/06/25 06:58:53;;;;;;;57.20;32.40;;;;;;;;;;4999753;28;20046;-53
2021/06/25 07:01:20;;;;;;;57.28;34.50;;;;;;;;;;4997797;28;20053;-53
2021/06/25 07:03:47;;;;;;;54.70;31.13;;;;;;;;;;4996594;28;20131;-53
2021/06/25 07:06:14;;;;;;;57.40;32.50;;;;;;;;;;4988809;28;20185;-53
2021/06/25 07:08:40;;;;;;;64.80;33.72;;;;;;;;;;4997160;28;20508;-53
2021/06/25 07:11:06;;;;;;;51.03;30.77;;;;;;;;;;5001513;28;20158;-53
2021/06/25 07:13:33;;;;;;;62.72;31.70;;;;;;;;;;4988093;28;20051;-53
2021/06/25 07:15:59;;;;;;;65.78;33.88;;;;;;;;;;5053608;28;20102;-52
2021/06/25 07:18:26;;;;;;;57.25;32.95;;;;;;;;;;5058803;28;20068;-53
2021/06/25 07:20:52;;;;;;;50.20;30.13;;;;;;;;;;5074020;28;20048;-53
2021/06/25 07:23:19;;;;;;;55.13;29.50;;;;;;;;;;5056483;28;20097;-52
2021/06/25 07:25:45;;;;;;;42.67;24.75;;;;;;;;;;5071354;28;20094;-53
2021/06/25 07:28:12;;;;;;;44.65;27.30;;;;;;;;;;5076194;28;20051;-52
2021/06/25 07:30:38;;;;;;;49.70;27.70;;;;;;;;;;5069181;28;20099;-52
2021/06/25 07:33:04;;;;;;;46.45;28.50;;;;;;;;;;5071248;28;20075;-53
2021/06/25 07:35:31;;;;;;;46.45;27.35;;;;;;;;;;5071496;28;20157;-53
2021/06/25 07:37:57;;;;;;;50.17;29.55;;;;;;;;;;5071459;28;20072;-53
2021/06/25 07:40:24;;;;;;;52.00;27.75;;;;;;;;;;5052768;28;20048;-52
2021/06/25 07:42:50;;;;;;;52.67;28.42;;;;;;;;;;5073674;28;20053;-52
2021/06/25 07:45:17;;;;;;;51.78;28.08;;;;;;;;;;5069800;28;20396;-52
2021/06/25 07:47:44;;;;;;;48.15;26.15;;;;;;;;;;5054382;28;20040;-52
2021/06/25 07:50:11;;;;;;;59.40;25.90;;;;;;;;;;5071169;28;20535;-51
2021/06/25 07:52:38;;;;;;;41.20;23.67;;;;;;;;;;5070922;28;20071;-52
2021/06/25 07:55:05;;;;;;;42.60;23.38;;;;;;;;;;5071400;28;20043;-52
2021/06/25 07:57:31;;;;;;;36.25;19.40;;;;;;;;;;5070191;28;20195;-53
2021/06/25 07:59:57;;;;;;;40.58;21.65;;;;;;;;;;5070156;28;20123;-53
2021/06/25 08:02:24;;;;;;;43.70;21.50;;;;;;;;;;5071575;28;20040;-53
2021/06/25 08:04:50;;;;;;;41.63;22.20;;;;;;;;;;5069630;28;20175;-53
2021/06/25 08:07:17;;;;;;;42.50;22.50;;;;;;;;;;5070250;28;20449;-53
2021/06/25 08:09:44;;;;;;;40.45;21.33;;;;;;;;;;5047457;28;20048;-53
2021/06/25 08:12:13;;;;;;;45.40;22.23;;;;;;;;;;5068815;28;20049;-53
2021/06/25 08:14:40;;;;;;;39.70;21.17;;;;;;;;;;5069355;28;20095;-53
2021/06/25 08:17:07;;;;;;;43.90;21.60;;;;;;;;;;5069809;28;20059;-54
2021/06/25 08:19:33;;;;;;;42.08;20.50;;;;;;;;;;5079675;28;20415;-54
2021/06/25 08:22:00;;;;;;;42.55;21.50;;;;;;;;;;5068041;28;20049;-53
2021/06/25 08:24:26;;;;;;;38.85;20.80;;;;;;;;;;5069810;28;20267;-53
2021/06/25 08:26:54;;;;;;;40.80;21.10;;;;;;;;;;5069243;28;20040;-53
2021/06/25 08:29:21;;;;;;;43.20;21.50;;;;;;;;;;5066416;28;20110;-54
2021/06/25 08:31:48;;;;;;;40.00;20.35;;;;;;;;;;5069679;28;20071;-53
2021/06/25 08:34:15;;;;;;;39.53;21.77;;;;;;;;;;5071315;28;20071;-53
2021/06/25 08:36:41;;;;;;;42.50;21.98;;;;;;;;;;5068557;28;20162;-54
2021/06/25 08:39:08;;;;;;;42.38;19.80;;;;;;;;;;5069265;28;20561;-53
2021/06/25 08:41:35;;;;;;;37.97;19.15;;;;;;;;;;5051468;28;20044;-54
2021/06/25 08:44:02;;;;;;;39.20;20.75;;;;;;;;;;5069493;28;20090;-53
2021/06/25 08:46:30;;;;;;;36.50;17.95;;;;;;;;;;5071118;28;20124;-53
2021/06/25 08:48:58;;;;;;;39.15;20.33;;;;;;;;;;5068935;28;20070;-53
2021/06/25 08:51:27;;;;;;;31.65;17.15;;;;;;;;;;5073574;28;20106;-53
2021/06/25 08:53:53;;;;;;;40.78;19.95;;;;;;;;;;5052418;28;20525;-53
2021/06/25 08:56:20;;;;;;;38.13;19.52;;;;;;;;;;5070996;28;20446;-53
2021/06/25 08:58:46;;;;;;;40.67;21.08;;;;;;;;;;5074102;28;20071;-54
2021/06/25 09:01:15;;;;;;;33.63;19.52;;;;;;;;;;5074538;28;20525;-54
2021/06/25 09:03:42;;;;;;;43.70;18.67;;;;;;;;;;5074834;28;20114;-53
2021/06/25 09:06:11;;;;;;;36.72;19.85;;;;;;;;;;5089707;28;20048;-53
2021/06/25 09:08:38;;;;;;;43.05;21.90;;;;;;;;;;5074085;28;20048;-53
2021/06/25 09:11:24;;;;;;;37.92;18.88;;;;;;;;;;5073736;28;20036;-54
2021/06/25 09:13:58;;;;;;;37.20;19.88;;;;;;;;;;5056372;28;20056;-54
2021/06/25 09:16:28;;;;;;;35.60;20.10;;;;;;;;;;5074951;28;20492;-53
2021/06/25 09:19:30;;;;;;;35.85;18.23;;;;;;;;;;5073621;28;20503;-53
2021/06/25 09:22:00;;;;;;;32.70;18.10;;;;;;;;;;5008047;28;20264;-53
2021/06/25 09:24:27;;;;;;;34.10;18.27;;;;;;;;;;5008010;28;20101;-53
2021/06/25 09:27:04;;;;;;;36.72;19.63;;;;;;;;;;5007640;28;20045;-54
2021/06/25 09:29:35;;;;;;;41.28;19.02;;;;;;;;;;5007264;28;20517;-53
2021/06/25 09:32:05;;;;;;;37.00;18.90;;;;;;;;;;5011450;28;20058;-54
2021/06/25 09:34:35;;;;;;;35.00;19.27;;;;;;;;;;5009037;28;20159;-53
2021/06/25 09:37:02;;;;;;;34.30;18.08;;;;;;;;;;5013648;28;20180;-54
2021/06/25 09:39:29;;;;;;;31.65;18.13;;;;;;;;;;5007229;28;20077;-54
2021/06/25 09:41:55;;;;;;;29.40;17.85;;;;;;;;;;5011473;28;20053;-53
2021/06/25 09:44:22;;;;;;;31.13;17.90;;;;;;;;;;4995477;28;20058;-53
2021/06/25 09:46:50;;;;;;;33.03;18.35;;;;;;;;;;5011229;28;20046;-53
2021/06/25 09:49:17;;;;;;;29.13;17.80;;;;;;;;;;5011344;28;20084;-53
2021/06/25 09:51:54;;;;;;;29.90;17.98;;;;;;;;;;5007014;28;20050;-54
2021/06/25 09:54:21;;;;;;;32.65;18.75;;;;;;;;;;4995483;28;20054;-53
2021/06/25 09:56:54;;;;;;;31.63;18.15;;;;;;;;;;5065055;28;20041;-53
2021/06/25 10:01:58;;;;;;;28.48;17.48;;;;;;;;;;5057959;28;20055;-53
2021/06/25 10:04:33;;;;;;;29.00;16.02;;;;;;;;;;5073628;28;20457;-53
2021/06/25 10:07:11;;;;;;;33.20;17.60;;;;;;;;;;5072700;28;20047;-53
2021/06/25 10:09:37;;;;;;;24.80;15.93;;;;;;;;;;5072719;28;20056;-53
2021/06/25 10:12:04;;;;;;;25.02;16.52;;;;;;;;;;5072716;28;20125;-54
2021/06/25 10:14:32;;;;;;;25.75;16.42;;;;;;;;;;5073699;28;20039;-54
2021/06/25 10:16:58;;;;;;;28.95;16.10;;;;;;;;;;5077116;28;20078;-53
2021/06/25 10:19:25;;;;;;;27.73;17.73;;;;;;;;;;5056118;28;20056;-53
2021/06/25 10:21:52;;;;;;;25.95;17.05;;;;;;;;;;5079973;28;20052;-54
2021/06/25 10:24:19;;;;;;;24.17;15.98;;;;;;;;;;5082915;28;20098;-53
2021/06/25 10:26:45;;;;;;;26.90;16.27;;;;;;;;;;5077277;28;20048;-53
2021/06/25 10:29:12;;;;;;;29.25;19.48;;;;;;;;;;5086326;28;20040;-54
2021/06/25 10:31:39;;;;;;;36.13;19.17;;;;;;;;;;5073073;28;20075;-53
2021/06/25 10:34:05;;;;;;;23.13;16.13;;;;;;;;;;5072969;28;20538;-53
2021/06/25 10:36:35;;;;;;;24.20;15.27;;;;;;;;;;5072708;28;20071;-54
2021/06/25 10:39:09;;;;;;;23.52;16.42;;;;;;;;;;5072216;28;20068;-54
2021/06/25 10:41:50;;;;;;;19.17;14.25;;;;;;;;;;5072722;28;20389;-54
2021/06/25 10:44:36;;;;;;;20.50;13.95;;;;;;;;;;5072771;28;20045;-54
2021/06/25 10:47:21;;;;;;;20.38;13.55;;;;;;;;;;5057893;28;20064;-54
2021/06/25 10:50:02;;;;;;;20.52;14.48;;;;;;;;;;5072594;28;20475;-54
2021/06/25 10:52:30;;;;;;;19.88;14.82;;;;;;;;;;5069538;28;20040;-54
2021/06/25 10:55:01;;;;;;;19.35;14.13;;;;;;;;;;5072779;28;20121;-54
2021/06/25 10:57:27;;;;;;;20.00;13.23;;;;;;;;;;5072753;28;20120;-54
2021/06/25 10:59:54;;;;;;;17.65;13.30;;;;;;;;;;5072221;28;20056;-54
2021/06/25 11:02:40;;;;;;;21.08;14.10;;;;;;;;;;5072318;28;20130;-54
2021/06/25 11:05:29;;;;;;;20.42;13.75;;;;;;;;;;5057967;28;20041;-54
2021/06/25 11:07:56;;;;;;;19.20;13.57;;;;;;;;;;5056637;28;20051;-54
2021/06/25 11:10:24;;;;;;;21.52;13.95;;;;;;;;;;5068411;28;20049;-53
2021/06/25 11:13:10;;;;;;;17.95;13.27;;;;;;;;;;5072421;28;20101;-53
2021/06/25 11:15:37;;;;;;;21.25;13.80;;;;;;;;;;5072307;28;20043;-54
2021/06/25 11:18:14;;;;;;;17.95;13.07;;;;;;;;;;5054609;28;20075;-54
2021/06/25 11:20:48;;;;;;;22.73;13.73;;;;;;;;;;5071301;28;20514;-54
2021/06/25 11:23:18;;;;;;;21.63;13.00;;;;;;;;;;5072464;28;20442;-53
2021/06/25 11:25:48;;;;;;;26.90;14.23;;;;;;;;;;5072302;28;20056;-53
2021/06/25 11:28:43;;;;;;;20.73;13.73;;;;;;;;;;5074854;28;20063;-54
2021/06/25 11:31:09;;;;;;;21.73;14.73;;;;;;;;;;5062037;28;20076;-53
2021/06/25 11:33:40;;;;;;;19.17;13.73;;;;;;;;;;5082799;28;20410;-54
2021/06/25 11:36:25;;;;;;;20.00;13.90;;;;;;;;;;5072811;28;20045;-54
2021/06/25 11:38:54;;;;;;;22.25;14.07;;;;;;;;;;5054087;28;20068;-54
2021/06/25 11:41:21;;;;;;;20.48;13.27;;;;;;;;;;5072014;28;20048;-54
2021/06/25 11:43:50;;;;;;;24.38;14.35;;;;;;;;;;5072077;28;21100;-54
2021/06/25 11:46:18;;;;;;;20.08;12.63;;;;;;;;;;5072567;28;20079;-53
2021/06/25 11:48:45;;;;;;;21.17;14.00;;;;;;;;;;5071549;28;20093;-53
2021/06/25 11:51:13;;;;;;;21.30;14.13;;;;;;;;;;5072019;28;20414;-53
2021/06/25 11:53:42;;;;;;;23.80;14.32;;;;;;;;;;5072048;28;20044;-53
2021/06/25 11:56:22;;;;;;;19.75;13.88;;;;;;;;;;5071950;28;20055;-53
2021/06/25 11:59:05;;;;;;;26.27;16.20;;;;;;;;;;5071754;28;20057;-54
2021/06/25 12:01:31;;;;;;;24.23;14.35;;;;;;;;;;5068755;28;20045;-54
2021/06/25 12:03:59;;;;;;;27.73;15.50;;;;;;;;;;5071979;28;20076;-53
2021/06/25 12:06:25;;;;;;;30.08;16.30;;;;;;;;;;5071958;28;20097;-53
2021/06/25 12:08:52;;;;;;;25.98;15.43;;;;;;;;;;5070889;28;20049;-53
2021/06/25 12:11:19;;;;;;;24.42;16.33;;;;;;;;;;5071498;28;20080;-53
2021/06/25 12:13:45;;;;;;;20.65;14.52;;;;;;;;;;5064101;28;20131;-53
2021/06/25 12:16:11;;;;;;;24.30;14.85;;;;;;;;;;5072346;28;20116;-54
2021/06/25 12:18:43;;;;;;;23.17;15.05;;;;;;;;;;5071471;28;20488;-53
2021/06/25 12:21:10;;;;;;;23.20;15.07;;;;;;;;;;5071646;28;20051;-54
2021/06/25 12:23:37;;;;;;;27.60;16.75;;;;;;;;;;5071665;28;20048;-53
2021/06/25 12:26:15;;;;;;;30.90;19.52;;;;;;;;;;5071568;28;20499;-53
2021/06/25 12:28:41;;;;;;;31.00;18.73;;;;;;;;;;5071743;28;20508;-54
2021/06/25 12:31:15;;;;;;;34.72;19.75;;;;;;;;;;5069922;28;20048;-53
2021/06/25 12:33:41;;;;;;;29.05;17.52;;;;;;;;;;5074965;28;20135;-53
2021/06/25 12:36:11;;;;;;;27.33;17.27;;;;;;;;;;5080957;28;20040;-54
2021/06/25 12:38:37;;;;;;;30.33;17.80;;;;;;;;;;5084626;28;20040;-53
2021/06/25 12:41:05;;;;;;;28.85;18.58;;;;;;;;;;5074991;28;20036;-53
2021/06/25 12:43:36;;;;;;;27.30;16.77;;;;;;;;;;5057585;28;20091;-53
2021/06/25 12:46:05;;;;;;;32.25;17.65;;;;;;;;;;5074784;28;20056;-54
2021/06/25 12:48:35;;;;;;;26.00;18.48;;;;;;;;;;5075114;28;20105;-53
2021/06/25 12:51:04;;;;;;;28.77;16.02;;;;;;;;;;5074940;28;20047;-53
2021/06/25 12:53:35;;;;;;;27.33;17.13;;;;;;;;;;5075037;28;20044;-53
2021/06/25 12:56:04;;;;;;;26.52;16.85;;;;;;;;;;5057295;28;20064;-53
2021/06/25 12:58:32;;;;;;;31.98;17.48;;;;;;;;;;5074917;28;20048;-53
2021/06/25 13:01:01;;;;;;;32.15;18.85;;;;;;;;;;5074589;28;20095;-53
2021/06/25 13:03:28;;;;;;;29.10;17.70;;;;;;;;;;5074833;28;20120;-53
2021/06/25 13:05:55;;;;;;;27.30;17.70;;;;;;;;;;5074810;28;20072;-53
2021/06/25 13:08:24;;;;;;;33.05;17.50;;;;;;;;;;5075075;28;20506;-53
2021/06/25 13:10:50;;;;;;;30.00;18.73;;;;;;;;;;5074392;28;20053;-53
2021/06/25 13:13:21;;;;;;;35.80;19.65;;;;;;;;;;5075185;28;20044;-53
2021/06/25 13:15:59;;;;;;;27.80;16.92;;;;;;;;;;5074571;28;20071;-53
2021/06/25 13:18:26;;;;;;;29.50;17.98;;;;;;;;;;5074684;28;20045;-53
2021/06/25 13:21:12;;;;;;;32.40;17.20;;;;;;;;;;5074269;28;20503;-53
2021/06/25 13:23:38;;;;;;;30.35;18.13;;;;;;;;;;5074432;28;20052;-53
2021/06/25 13:26:27;;;;;;;27.98;17.80;;;;;;;;;;5074056;28;20442;-53
2021/06/25 13:28:57;;;;;;;30.58;16.42;;;;;;;;;;5074146;28;20045;-54
2021/06/25 13:31:24;;;;;;;35.35;18.40;;;;;;;;;;5074467;28;20531;-53
2021/06/25 13:33:50;;;;;;;28.55;17.10;;;;;;;;;;5056208;28;20455;-54
2021/06/25 13:36:16;;;;;;;26.50;16.38;;;;;;;;;;5073931;28;20197;-53
2021/06/25 13:38:43;;;;;;;28.20;17.05;;;;;;;;;;5073896;28;20036;-53
2021/06/25 13:41:20;;;;;;;27.45;15.57;;;;;;;;;;5074371;28;20114;-54
2021/06/25 13:43:50;;;;;;;24.88;15.65;;;;;;;;;;5073778;28;20408;-55
2021/06/25 13:46:20;;;;;;;25.25;16.33;;;;;;;;;;5056683;28;20044;-54
2021/06/25 13:48:59;;;;;;;27.77;17.95;;;;;;;;;;5073668;28;20056;-54
2021/06/25 13:51:25;;;;;;;25.15;16.88;;;;;;;;;;5074018;28;20093;-54
2021/06/25 13:53:52;;;;;;;24.40;16.65;;;;;;;;;;5074028;28;20339;-54
2021/06/25 13:56:20;;;;;;;26.30;18.13;;;;;;;;;;5074120;28;20052;-54
2021/06/25 13:58:55;;;;;;;25.30;18.15;;;;;;;;;;5073238;28;20051;-54
2021/06/25 14:01:24;;;;;;;29.10;18.30;;;;;;;;;;5074343;28;20461;-54
2021/06/25 14:04:00;;;;;;;24.38;17.45;;;;;;;;;;5073744;28;20464;-54
2021/06/25 14:06:28;;;;;;;25.83;18.63;;;;;;;;;;5077862;28;20043;-53
2021/06/25 14:08:54;;;;;;;23.73;17.95;;;;;;;;;;5077983;28;20100;-54
2021/06/25 14:11:20;;;;;;;25.70;18.33;;;;;;;;;;5084592;28;20087;-54
2021/06/25 14:13:52;;;;;;;25.55;18.92;;;;;;;;;;5080956;28;20523;-54
2021/06/25 14:16:29;;;;;;;29.15;20.40;;;;;;;;;;5089823;28;20048;-53
2021/06/25 14:18:56;;;;;;;27.20;19.77;;;;;;;;;;5073025;28;20048;-52
2021/06/25 14:21:27;;;;;;;31.63;20.60;;;;;;;;;;5072974;28;20117;-52
2021/06/25 14:23:53;;;;;;;31.38;22.13;;;;;;;;;;5073210;28;20067;-53
2021/06/25 14:26:21;;;;;;;31.05;21.17;;;;;;;;;;5073442;28;20041;-54
2021/06/25 14:28:48;;;;;;;36.80;23.67;;;;;;;;;;5072776;28;20052;-54
2021/06/25 14:31:14;;;;;;;34.60;22.83;;;;;;;;;;5073382;28;20074;-52
2021/06/25 14:33:41;;;;;;;31.35;22.10;;;;;;;;;;5072447;28;20079;-52
2021/06/25 14:36:07;;;;;;;35.85;23.20;;;;;;;;;;5072810;28;20113;-53
2021/06/25 14:38:34;;;;;;;32.05;23.40;;;;;;;;;;5055108;28;20111;-53
2021/06/25 14:41:01;;;;;;;30.83;21.73;;;;;;;;;;5057374;28;20067;-53
2021/06/25 14:43:27;;;;;;;34.38;22.67;;;;;;;;;;5072977;28;20102;-53